메인 페이지
METAR-TAF:

METAR-TAF

공항 :

미니애폴리스 세인트폴 국제공항

미니애폴리스, 미네소타, 미국

위도: 44-52-59N, 경도: 093-13-44W, 고도: 256m

현재 날씨관측

예보는 38분 전, 06:53시(UTC)에 발표되었습니다.
남남서10kt, 순간 최대 풍속 18kt
온도 18°C
습도 39%
기압 1006 hPa
시정: 16.1km
고도 23000ft 상공 구름 보통

METAR: KMSP 210653Z COR 20010G18KT 10SM SCT230 18/04 A2972 RMK AO2 SLP060 T01830044

시각: 02:31 (07:31 UTC)

예보

예보는 2 시간 11분 전, 05:20시(UTC)에 발표되었습니다.
예보 대상 시간: 21일 06시부터 22일 12시까지 (UTC)
남남동6kt
시정: 10km
고도 20000ft 상공 구름 보통
21일 1100시부터 (UTC)
7kt
시정: 10km
고도 12000ft 상공 흐림
시계 내 소나기
21일 1500시부터 (UTC)
8kt
시정: 10km
고도 12000ft 상공 구름 많음
21일 2300시부터 (UTC)
북동10kt
시정: 10km
고도 7000ft 상공 구름 보통
고도 12000ft 상공 구름 많음
22일 0500시부터 (UTC)
북동12kt
시정: 9.7km
고도 5000ft 상공 흐림
약한소나기, 박무

TAF: KMSP 210520Z 2106/2212 15006KT P6SM SCT200 FM211100 09007KT P6SM VCSH OVC120 FM211500 09008KT P6SM BKN120 FM212300 04010KT P6SM SCT070 BKN120 FM220500 04012KT 6SM -SHRA BR OVC050

4,000개 이상의 공항 관측 자료 및 예보 (METAR 및 TAF 보고).

지도상에서 검색 가능한 기상관측소가 노란 점과 빨간 점으로 표시되어 있습니다.

기상관측소 명을 보려면 표시 위로 마우스를 이동하세요.

날씨 관측과 예보를 보려면 클릭하세요.

지도 변경 : 확대하려면 엑스 표시가 있는 녹색 버튼, 축소하려면 빼기 표시가 있는 녹색 버튼, 다음 페이지의 지도를 보려면 녹색 화살표를 클릭하세요.


METAR-TAF: